sensor_id;sensor_type;location;lat;lon;timestamp;pressure;altitude;pressure_sealevel;temperature;humidity
73171;BME280;61381;50.118;19.962;2022-11-20T00:03:24;98275.97;;;-7.62;100.00
73171;BME280;61381;50.118;19.962;2022-11-20T00:08:27;98270.22;;;-7.80;100.00
73171;BME280;61381;50.118;19.962;2022-11-20T00:13:28;98266.81;;;-7.81;100.00
73171;BME280;61381;50.118;19.962;2022-11-20T00:18:29;98255.78;;;-7.83;100.00
73171;BME280;61381;50.118;19.962;2022-11-20T00:23:32;98262.53;;;-7.50;100.00
73171;BME280;61381;50.118;19.962;2022-11-20T00:28:33;98260.25;;;-7.68;100.00
73171;BME280;61381;50.118;19.962;2022-11-20T00:33:34;98255.94;;;-7.84;100.00
73171;BME280;61381;50.118;19.962;2022-11-20T00:38:37;98260.38;;;-7.93;100.00
73171;BME280;61381;50.118;19.962;2022-11-20T00:43:38;98264.75;;;-7.85;100.00
73171;BME280;61381;50.118;19.962;2022-11-20T00:48:39;98259.47;;;-7.77;100.00
73171;BME280;61381;50.118;19.962;2022-11-20T00:53:42;98241.56;;;-7.95;100.00
73171;BME280;61381;50.118;19.962;2022-11-20T00:58:44;98240.38;;;-8.16;100.00
73171;BME280;61381;50.118;19.962;2022-11-20T01:03:46;98229.31;;;-8.10;100.00
73171;BME280;61381;50.118;19.962;2022-11-20T01:08:49;98231.03;;;-8.02;100.00
73171;BME280;61381;50.118;19.962;2022-11-20T01:13:52;98232.34;;;-8.06;100.00
73171;BME280;61381;50.118;19.962;2022-11-20T01:18:55;98244.41;;;-8.13;100.00
73171;BME280;61381;50.118;19.962;2022-11-20T01:23:59;98224.47;;;-8.21;100.00
73171;BME280;61381;50.118;19.962;2022-11-20T01:29:02;98215.97;;;-8.07;100.00
73171;BME280;61381;50.118;19.962;2022-11-20T01:34:05;98216.13;;;-8.08;100.00
73171;BME280;61381;50.118;19.962;2022-11-20T01:39:11;98218.75;;;-8.16;100.00
73171;BME280;61381;50.118;19.962;2022-11-20T01:44:15;98215.75;;;-8.28;100.00
73171;BME280;61381;50.118;19.962;2022-11-20T01:49:20;98199.13;;;-8.42;100.00
73171;BME280;61381;50.118;19.962;2022-11-20T01:54:27;98218.69;;;-7.77;100.00
73171;BME280;61381;50.118;19.962;2022-11-20T01:59:29;98217.44;;;-7.81;100.00
73171;BME280;61381;50.118;19.962;2022-11-20T02:04:30;98210.44;;;-7.80;100.00
73171;BME280;61381;50.118;19.962;2022-11-20T02:09:33;98214.41;;;-7.69;100.00
73171;BME280;61381;50.118;19.962;2022-11-20T02:14:34;98220.84;;;-8.12;100.00
73171;BME280;61381;50.118;19.962;2022-11-20T02:19:34;98229.53;;;-8.28;100.00
73171;BME280;61381;50.118;19.962;2022-11-20T02:24:37;98237.22;;;-8.03;100.00
73171;BME280;61381;50.118;19.962;2022-11-20T02:29:42;98237.63;;;-8.22;100.00
73171;BME280;61381;50.118;19.962;2022-11-20T02:34:45;98228.44;;;-8.33;100.00
73171;BME280;61381;50.118;19.962;2022-11-20T02:39:49;98229.69;;;-8.52;100.00
73171;BME280;61381;50.118;19.962;2022-11-20T02:44:51;98231.66;;;-8.54;100.00
73171;BME280;61381;50.118;19.962;2022-11-20T02:49:52;98238.03;;;-8.73;100.00
73171;BME280;61381;50.118;19.962;2022-11-20T02:54:54;98232.56;;;-8.95;100.00
73171;BME280;61381;50.118;19.962;2022-11-20T02:59:55;98232.91;;;-8.98;100.00
73171;BME280;61381;50.118;19.962;2022-11-20T03:04:56;98223.09;;;-8.71;100.00
73171;BME280;61381;50.118;19.962;2022-11-20T03:09:59;98218.47;;;-8.45;100.00
73171;BME280;61381;50.118;19.962;2022-11-20T03:15:00;98212.72;;;-8.40;100.00
73171;BME280;61381;50.118;19.962;2022-11-20T03:20:01;98223.19;;;-8.56;100.00
73171;BME280;61381;50.118;19.962;2022-11-20T03:25:04;98219.53;;;-8.70;100.00
73171;BME280;61381;50.118;19.962;2022-11-20T03:30:06;98210.44;;;-8.74;100.00
73171;BME280;61381;50.118;19.962;2022-11-20T03:35:07;98212.44;;;-8.85;100.00
73171;BME280;61381;50.118;19.962;2022-11-20T03:40:11;98203.22;;;-8.95;100.00
73171;BME280;61381;50.118;19.962;2022-11-20T03:45:12;98205.31;;;-8.91;100.00
73171;BME280;61381;50.118;19.962;2022-11-20T03:50:14;98205.28;;;-8.83;100.00
73171;BME280;61381;50.118;19.962;2022-11-20T03:55:17;98203.31;;;-8.72;100.00
73171;BME280;61381;50.118;19.962;2022-11-20T04:00:18;98187.63;;;-8.87;100.00
73171;BME280;61381;50.118;19.962;2022-11-20T04:05:19;98193.66;;;-8.95;100.00
73171;BME280;61381;50.118;19.962;2022-11-20T04:10:21;98203.56;;;-9.07;100.00
73171;BME280;61381;50.118;19.962;2022-11-20T04:15:22;98198.19;;;-8.97;100.00
73171;BME280;61381;50.118;19.962;2022-11-20T04:20:23;98194.97;;;-9.07;100.00
73171;BME280;61381;50.118;19.962;2022-11-20T04:25:25;98182.63;;;-9.05;100.00
73171;BME280;61381;50.118;19.962;2022-11-20T04:30:26;98189.91;;;-8.92;100.00
73171;BME280;61381;50.118;19.962;2022-11-20T04:35:27;98180.38;;;-9.08;100.00
73171;BME280;61381;50.118;19.962;2022-11-20T04:40:30;98173.94;;;-9.21;100.00
73171;BME280;61381;50.118;19.962;2022-11-20T04:45:31;98180.59;;;-9.35;100.00
73171;BME280;61381;50.118;19.962;2022-11-20T04:50:32;98172.81;;;-9.51;100.00
73171;BME280;61381;50.118;19.962;2022-11-20T04:55:34;98168.75;;;-9.21;100.00
73171;BME280;61381;50.118;19.962;2022-11-20T05:00:35;98163.34;;;-9.03;100.00
73171;BME280;61381;50.118;19.962;2022-11-20T05:05:36;98166.16;;;-9.21;100.00
73171;BME280;61381;50.118;19.962;2022-11-20T05:10:38;98175.03;;;-9.07;100.00
73171;BME280;61381;50.118;19.962;2022-11-20T05:15:39;98172.00;;;-9.19;100.00
73171;BME280;61381;50.118;19.962;2022-11-20T05:20:40;98164.13;;;-8.94;100.00
73171;BME280;61381;50.118;19.962;2022-11-20T05:25:43;98172.59;;;-9.08;100.00
73171;BME280;61381;50.118;19.962;2022-11-20T05:30:44;98159.84;;;-9.35;100.00
73171;BME280;61381;50.118;19.962;2022-11-20T05:35:45;98152.91;;;-9.42;100.00
73171;BME280;61381;50.118;19.962;2022-11-20T05:40:47;98162.75;;;-9.29;100.00
73171;BME280;61381;50.118;19.962;2022-11-20T05:45:51;98157.72;;;-9.31;100.00
73171;BME280;61381;50.118;19.962;2022-11-20T05:50:52;98154.34;;;-9.32;100.00
73171;BME280;61381;50.118;19.962;2022-11-20T05:55:59;98141.22;;;-9.30;100.00
73171;BME280;61381;50.118;19.962;2022-11-20T06:01:04;98149.31;;;-9.33;100.00
73171;BME280;61381;50.118;19.962;2022-11-20T06:06:06;98145.59;;;-9.30;100.00
73171;BME280;61381;50.118;19.962;2022-11-20T06:11:10;98152.41;;;-9.38;100.00
73171;BME280;61381;50.118;19.962;2022-11-20T06:16:14;98152.06;;;-9.35;100.00
73171;BME280;61381;50.118;19.962;2022-11-20T06:21:17;98147.53;;;-9.24;100.00
73171;BME280;61381;50.118;19.962;2022-11-20T06:26:21;98153.94;;;-8.95;100.00
73171;BME280;61381;50.118;19.962;2022-11-20T06:31:24;98144.41;;;-9.11;100.00
73171;BME280;61381;50.118;19.962;2022-11-20T06:36:25;98150.72;;;-9.06;100.00
73171;BME280;61381;50.118;19.962;2022-11-20T06:41:28;98146.03;;;-8.71;100.00
73171;BME280;61381;50.118;19.962;2022-11-20T06:46:29;98135.59;;;-8.54;100.00
73171;BME280;61381;50.118;19.962;2022-11-20T06:51:30;98137.25;;;-8.38;100.00
73171;BME280;61381;50.118;19.962;2022-11-20T06:56:32;98128.34;;;-7.98;100.00
73171;BME280;61381;50.118;19.962;2022-11-20T07:01:33;98133.94;;;-7.86;100.00
73171;BME280;61381;50.118;19.962;2022-11-20T07:06:34;98120.91;;;-7.78;100.00
73171;BME280;61381;50.118;19.962;2022-11-20T07:11:36;98125.75;;;-7.75;100.00
73171;BME280;61381;50.118;19.962;2022-11-20T07:16:37;98141.63;;;-7.69;100.00
73171;BME280;61381;50.118;19.962;2022-11-20T07:21:38;98146.59;;;-7.45;100.00
73171;BME280;61381;50.118;19.962;2022-11-20T07:26:40;98143.84;;;-7.13;100.00
73171;BME280;61381;50.118;19.962;2022-11-20T07:31:41;98144.56;;;-6.75;100.00
73171;BME280;61381;50.118;19.962;2022-11-20T07:36:43;98151.94;;;-6.42;100.00
73171;BME280;61381;50.118;19.962;2022-11-20T07:41:45;98157.66;;;-5.88;100.00
73171;BME280;61381;50.118;19.962;2022-11-20T07:46:46;98168.84;;;-5.73;100.00
73171;BME280;61381;50.118;19.962;2022-11-20T07:51:47;98168.34;;;-5.62;100.00
73171;BME280;61381;50.118;19.962;2022-11-20T07:56:51;98163.56;;;-5.30;100.00
73171;BME280;61381;50.118;19.962;2022-11-20T08:01:52;98169.81;;;-5.24;100.00
73171;BME280;61381;50.118;19.962;2022-11-20T08:06:53;98171.88;;;-5.20;100.00
73171;BME280;61381;50.118;19.962;2022-11-20T08:11:56;98178.94;;;-4.78;100.00
73171;BME280;61381;50.118;19.962;2022-11-20T08:16:57;98174.94;;;-5.09;100.00
73171;BME280;61381;50.118;19.962;2022-11-20T08:21:58;98168.09;;;-4.75;100.00
73171;BME280;61381;50.118;19.962;2022-11-20T08:27:00;98165.59;;;-4.55;100.00
73171;BME280;61381;50.118;19.962;2022-11-20T08:32:01;98167.34;;;-4.62;100.00
73171;BME280;61381;50.118;19.962;2022-11-20T08:37:12;98157.00;;;-4.84;100.00
73171;BME280;61381;50.118;19.962;2022-11-20T08:42:14;98153.09;;;-5.02;100.00
73171;BME280;61381;50.118;19.962;2022-11-20T08:47:15;98155.69;;;-5.08;100.00
73171;BME280;61381;50.118;19.962;2022-11-20T08:52:16;98144.34;;;-4.87;100.00
73171;BME280;61381;50.118;19.962;2022-11-20T08:57:19;98140.78;;;-5.14;100.00
73171;BME280;61381;50.118;19.962;2022-11-20T09:02:20;98138.88;;;-4.92;100.00
73171;BME280;61381;50.118;19.962;2022-11-20T09:07:21;98137.50;;;-4.88;100.00
73171;BME280;61381;50.118;19.962;2022-11-20T09:12:23;98138.72;;;-4.42;100.00
73171;BME280;61381;50.118;19.962;2022-11-20T09:17:24;98133.28;;;-4.41;100.00
73171;BME280;61381;50.118;19.962;2022-11-20T09:22:25;98129.22;;;-4.50;100.00
73171;BME280;61381;50.118;19.962;2022-11-20T09:27:27;98137.19;;;-4.03;100.00
73171;BME280;61381;50.118;19.962;2022-11-20T09:32:28;98137.22;;;-3.43;100.00
73171;BME280;61381;50.118;19.962;2022-11-20T09:37:29;98138.75;;;-3.02;100.00
73171;BME280;61381;50.118;19.962;2022-11-20T09:42:38;98140.28;;;-2.67;100.00
73171;BME280;61381;50.118;19.962;2022-11-20T09:47:51;98146.66;;;-2.43;100.00
73171;BME280;61381;50.118;19.962;2022-11-20T09:53:10;98143.16;;;-2.30;100.00
73171;BME280;61381;50.118;19.962;2022-11-20T09:58:22;98132.47;;;-2.29;100.00
73171;BME280;61381;50.118;19.962;2022-11-20T10:03:36;98132.03;;;-2.71;100.00
73171;BME280;61381;50.118;19.962;2022-11-20T10:08:41;98141.69;;;-2.20;100.00
73171;BME280;61381;50.118;19.962;2022-11-20T10:13:49;98141.13;;;-1.90;100.00
73171;BME280;61381;50.118;19.962;2022-11-20T10:19:03;98132.19;;;-1.82;100.00
73171;BME280;61381;50.118;19.962;2022-11-20T10:24:35;98138.44;;;-1.83;100.00
73171;BME280;61381;50.118;19.962;2022-11-20T10:29:45;98129.84;;;-1.97;100.00
73171;BME280;61381;50.118;19.962;2022-11-20T10:34:50;98134.00;;;-1.83;100.00
73171;BME280;61381;50.118;19.962;2022-11-20T10:40:03;98127.19;;;-1.90;100.00
73171;BME280;61381;50.118;19.962;2022-11-20T10:45:18;98123.34;;;-1.63;100.00
73171;BME280;61381;50.118;19.962;2022-11-20T10:50:22;98106.41;;;-1.41;100.00
73171;BME280;61381;50.118;19.962;2022-11-20T10:55:29;98085.03;;;-1.45;99.75
73171;BME280;61381;50.118;19.962;2022-11-20T11:00:34;98094.88;;;-1.66;98.25
73171;BME280;61381;50.118;19.962;2022-11-20T11:05:38;98091.69;;;-1.68;98.20
73171;BME280;61381;50.118;19.962;2022-11-20T11:10:46;98080.59;;;-1.26;98.00
73171;BME280;61381;50.118;19.962;2022-11-20T11:15:50;98066.13;;;-1.17;98.71
73171;BME280;61381;50.118;19.962;2022-11-20T11:20:51;98061.97;;;-0.87;96.57
73171;BME280;61381;50.118;19.962;2022-11-20T11:25:56;98060.75;;;-0.55;98.29
73171;BME280;61381;50.118;19.962;2022-11-20T11:30:59;98051.63;;;-0.52;95.78
73171;BME280;61381;50.118;19.962;2022-11-20T11:36:02;98057.69;;;-0.51;96.52
73171;BME280;61381;50.118;19.962;2022-11-20T11:41:06;98062.97;;;0.03;95.85
73171;BME280;61381;50.118;19.962;2022-11-20T11:46:25;98045.59;;;-0.41;95.65
73171;BME280;61381;50.118;19.962;2022-11-20T11:51:33;98045.19;;;-0.56;95.77
73171;BME280;61381;50.118;19.962;2022-11-20T11:56:35;98038.09;;;-0.56;96.68
73171;BME280;61381;50.118;19.962;2022-11-20T12:01:43;98025.38;;;-0.89;96.27
73171;BME280;61381;50.118;19.962;2022-11-20T12:06:48;98031.69;;;-1.09;95.49
73171;BME280;61381;50.118;19.962;2022-11-20T12:11:54;98030.09;;;-1.10;93.38
73171;BME280;61381;50.118;19.962;2022-11-20T12:16:57;98027.16;;;-1.20;94.61
73171;BME280;61381;50.118;19.962;2022-11-20T12:22:04;98024.31;;;-1.18;95.04
73171;BME280;61381;50.118;19.962;2022-11-20T12:27:27;98023.66;;;-1.32;92.63
73171;BME280;61381;50.118;19.962;2022-11-20T12:32:49;98023.06;;;-0.97;93.83
73171;BME280;61381;50.118;19.962;2022-11-20T12:38:02;98027.09;;;-1.13;92.46
73171;BME280;61381;50.118;19.962;2022-11-20T12:43:15;98025.03;;;-1.11;92.72
73171;BME280;61381;50.118;19.962;2022-11-20T12:48:39;98022.72;;;-1.01;94.03
73171;BME280;61381;50.118;19.962;2022-11-20T12:53:51;98018.41;;;-1.14;94.70
73171;BME280;61381;50.118;19.962;2022-11-20T12:59:05;98001.06;;;-1.03;92.89
73171;BME280;61381;50.118;19.962;2022-11-20T13:04:23;98001.25;;;-1.16;94.22
73171;BME280;61381;50.118;19.962;2022-11-20T13:09:27;97991.16;;;-1.01;93.36
73171;BME280;61381;50.118;19.962;2022-11-20T13:14:34;97988.81;;;-1.09;93.76
73171;BME280;61381;50.118;19.962;2022-11-20T13:19:38;97992.84;;;-1.06;96.44
73171;BME280;61381;50.118;19.962;2022-11-20T13:24:50;97973.91;;;-0.66;92.98
73171;BME280;61381;50.118;19.962;2022-11-20T13:30:11;97978.09;;;-0.77;92.37
73171;BME280;61381;50.118;19.962;2022-11-20T13:35:27;97963.34;;;-0.78;92.90
73171;BME280;61381;50.118;19.962;2022-11-20T13:40:29;97955.59;;;-1.03;93.97
73171;BME280;61381;50.118;19.962;2022-11-20T13:45:31;97950.41;;;-1.40;95.44
73171;BME280;61381;50.118;19.962;2022-11-20T13:50:46;97945.06;;;-1.52;96.08
73171;BME280;61381;50.118;19.962;2022-11-20T13:55:54;97945.88;;;-1.70;98.72
73171;BME280;61381;50.118;19.962;2022-11-20T14:00:58;97948.34;;;-1.75;100.00
73171;BME280;61381;50.118;19.962;2022-11-20T14:06:04;97959.22;;;-1.72;98.82
73171;BME280;61381;50.118;19.962;2022-11-20T14:11:13;97954.56;;;-1.88;100.00
73171;BME280;61381;50.118;19.962;2022-11-20T14:16:19;97955.69;;;-1.84;100.00
73171;BME280;61381;50.118;19.962;2022-11-20T14:21:27;97949.22;;;-1.63;100.00
73171;BME280;61381;50.118;19.962;2022-11-20T14:26:28;97932.09;;;-1.66;100.00
73171;BME280;61381;50.118;19.962;2022-11-20T14:31:30;97924.94;;;-1.77;100.00
73171;BME280;61381;50.118;19.962;2022-11-20T14:36:32;97928.41;;;-2.20;100.00
73171;BME280;61381;50.118;19.962;2022-11-20T14:41:33;97925.41;;;-2.49;100.00
73171;BME280;61381;50.118;19.962;2022-11-20T14:46:34;97928.66;;;-2.28;100.00
73171;BME280;61381;50.118;19.962;2022-11-20T14:51:38;97925.41;;;-2.49;100.00
73171;BME280;61381;50.118;19.962;2022-11-20T14:56:39;97923.22;;;-2.84;100.00
73171;BME280;61381;50.118;19.962;2022-11-20T15:01:54;97923.88;;;-3.27;100.00
73171;BME280;61381;50.118;19.962;2022-11-20T15:06:58;97910.84;;;-3.41;100.00
73171;BME280;61381;50.118;19.962;2022-11-20T15:12:01;97917.78;;;-3.66;100.00
73171;BME280;61381;50.118;19.962;2022-11-20T15:17:03;97912.53;;;-3.66;100.00
73171;BME280;61381;50.118;19.962;2022-11-20T15:22:08;97912.34;;;-3.65;100.00
73171;BME280;61381;50.118;19.962;2022-11-20T15:27:12;97914.94;;;-3.65;100.00
73171;BME280;61381;50.118;19.962;2022-11-20T15:32:13;97920.41;;;-3.73;100.00
73171;BME280;61381;50.118;19.962;2022-11-20T15:37:15;97911.28;;;-3.57;100.00
73171;BME280;61381;50.118;19.962;2022-11-20T15:42:16;97902.03;;;-3.08;100.00
73171;BME280;61381;50.118;19.962;2022-11-20T15:47:17;97896.28;;;-3.30;100.00
73171;BME280;61381;50.118;19.962;2022-11-20T15:52:20;97898.31;;;-3.38;100.00
73171;BME280;61381;50.118;19.962;2022-11-20T15:57:21;97903.81;;;-3.47;100.00
73171;BME280;61381;50.118;19.962;2022-11-20T16:02:22;97894.75;;;-3.51;100.00
73171;BME280;61381;50.118;19.962;2022-11-20T16:07:24;97900.41;;;-3.54;100.00
73171;BME280;61381;50.118;19.962;2022-11-20T16:12:26;97880.63;;;-3.43;100.00
73171;BME280;61381;50.118;19.962;2022-11-20T16:17:27;97884.06;;;-3.43;100.00
73171;BME280;61381;50.118;19.962;2022-11-20T16:22:29;97883.84;;;-3.41;100.00
73171;BME280;61381;50.118;19.962;2022-11-20T16:27:30;97887.28;;;-3.41;100.00
73171;BME280;61381;50.118;19.962;2022-11-20T16:32:31;97895.06;;;-3.27;100.00
73171;BME280;61381;50.118;19.962;2022-11-20T16:37:34;97899.63;;;-3.16;100.00
73171;BME280;61381;50.118;19.962;2022-11-20T16:42:35;97903.28;;;-3.17;100.00
73171;BME280;61381;50.118;19.962;2022-11-20T16:47:37;97900.31;;;-2.95;100.00
73171;BME280;61381;50.118;19.962;2022-11-20T16:52:39;97900.84;;;-2.87;100.00
73171;BME280;61381;50.118;19.962;2022-11-20T16:57:40;97890.72;;;-2.76;100.00
73171;BME280;61381;50.118;19.962;2022-11-20T17:02:41;97884.50;;;-2.82;100.00
73171;BME280;61381;50.118;19.962;2022-11-20T17:07:43;97881.44;;;-2.79;100.00
73171;BME280;61381;50.118;19.962;2022-11-20T17:12:44;97883.50;;;-2.81;100.00
73171;BME280;61381;50.118;19.962;2022-11-20T17:17:45;97875.41;;;-2.79;100.00
73171;BME280;61381;50.118;19.962;2022-11-20T17:22:48;97875.75;;;-2.69;100.00
73171;BME280;61381;50.118;19.962;2022-11-20T17:27:49;97879.47;;;-2.83;100.00
73171;BME280;61381;50.118;19.962;2022-11-20T17:32:50;97871.25;;;-2.87;100.00
73171;BME280;61381;50.118;19.962;2022-11-20T17:37:52;97860.06;;;-2.76;100.00
73171;BME280;61381;50.118;19.962;2022-11-20T17:42:53;97849.84;;;-2.84;100.00
73171;BME280;61381;50.118;19.962;2022-11-20T17:47:54;97837.31;;;-3.07;100.00
73171;BME280;61381;50.118;19.962;2022-11-20T17:52:56;97852.59;;;-3.29;100.00
73171;BME280;61381;50.118;19.962;2022-11-20T17:57:57;97850.25;;;-3.51;100.00
73171;BME280;61381;50.118;19.962;2022-11-20T18:02:58;97848.97;;;-3.35;100.00
73171;BME280;61381;50.118;19.962;2022-11-20T18:08:01;97854.56;;;-3.25;100.00
73171;BME280;61381;50.118;19.962;2022-11-20T18:13:02;97864.84;;;-3.23;100.00
73171;BME280;61381;50.118;19.962;2022-11-20T18:18:03;97857.56;;;-3.21;100.00
73171;BME280;61381;50.118;19.962;2022-11-20T18:23:05;97858.75;;;-3.17;100.00
73171;BME280;61381;50.118;19.962;2022-11-20T18:28:06;97856.28;;;-3.12;100.00
73171;BME280;61381;50.118;19.962;2022-11-20T18:33:07;97843.94;;;-3.36;100.00
73171;BME280;61381;50.118;19.962;2022-11-20T18:38:09;97829.09;;;-3.43;100.00
73171;BME280;61381;50.118;19.962;2022-11-20T18:43:10;97819.41;;;-3.42;100.00
73171;BME280;61381;50.118;19.962;2022-11-20T18:48:11;97816.41;;;-3.46;100.00
73171;BME280;61381;50.118;19.962;2022-11-20T18:53:13;97825.75;;;-3.56;100.00
73171;BME280;61381;50.118;19.962;2022-11-20T18:58:14;97826.59;;;-3.69;100.00
73171;BME280;61381;50.118;19.962;2022-11-20T19:03:15;97825.88;;;-3.90;100.00
73171;BME280;61381;50.118;19.962;2022-11-20T19:08:17;97815.47;;;-4.03;100.00
73171;BME280;61381;50.118;19.962;2022-11-20T19:13:18;97819.69;;;-4.09;100.00
73171;BME280;61381;50.118;19.962;2022-11-20T19:18:20;97813.69;;;-4.09;100.00
73171;BME280;61381;50.118;19.962;2022-11-20T19:23:22;97806.72;;;-4.36;100.00
73171;BME280;61381;50.118;19.962;2022-11-20T19:28:23;97810.94;;;-4.35;100.00
73171;BME280;61381;50.118;19.962;2022-11-20T19:33:24;97818.63;;;-4.53;100.00
73171;BME280;61381;50.118;19.962;2022-11-20T19:38:26;97809.38;;;-4.62;100.00
73171;BME280;61381;50.118;19.962;2022-11-20T19:43:27;97799.75;;;-4.75;100.00
73171;BME280;61381;50.118;19.962;2022-11-20T19:48:29;97806.56;;;-4.68;100.00
73171;BME280;61381;50.118;19.962;2022-11-20T19:53:31;97794.53;;;-4.89;100.00
73171;BME280;61381;50.118;19.962;2022-11-20T19:58:32;97809.78;;;-4.72;100.00
73171;BME280;61381;50.118;19.962;2022-11-20T20:03:33;97804.16;;;-4.82;100.00
73171;BME280;61381;50.118;19.962;2022-11-20T20:08:36;97809.41;;;-4.96;100.00
73171;BME280;61381;50.118;19.962;2022-11-20T20:13:37;97811.22;;;-4.96;100.00
73171;BME280;61381;50.118;19.962;2022-11-20T20:18:38;97806.59;;;-5.08;100.00
73171;BME280;61381;50.118;19.962;2022-11-20T20:23:41;97803.38;;;-4.70;100.00
73171;BME280;61381;50.118;19.962;2022-11-20T20:28:42;97820.03;;;-4.44;100.00
73171;BME280;61381;50.118;19.962;2022-11-20T20:33:44;97821.34;;;-4.21;100.00
73171;BME280;61381;50.118;19.962;2022-11-20T20:38:46;97820.34;;;-4.20;100.00
73171;BME280;61381;50.118;19.962;2022-11-20T20:43:47;97812.91;;;-4.23;100.00
73171;BME280;61381;50.118;19.962;2022-11-20T20:48:48;97824.13;;;-4.09;100.00
73171;BME280;61381;50.118;19.962;2022-11-20T20:53:50;97829.13;;;-4.01;100.00
73171;BME280;61381;50.118;19.962;2022-11-20T20:58:51;97832.13;;;-3.91;100.00
73171;BME280;61381;50.118;19.962;2022-11-20T21:03:52;97818.41;;;-3.80;100.00
73171;BME280;61381;50.118;19.962;2022-11-20T21:08:55;97820.28;;;-4.00;100.00
73171;BME280;61381;50.118;19.962;2022-11-20T21:13:56;97826.78;;;-4.16;100.00
73171;BME280;61381;50.118;19.962;2022-11-20T21:18:56;97808.38;;;-3.89;100.00
73171;BME280;61381;50.118;19.962;2022-11-20T21:23:59;97820.97;;;-3.73;100.00
73171;BME280;61381;50.118;19.962;2022-11-20T21:29:00;97818.94;;;-3.64;100.00
73171;BME280;61381;50.118;19.962;2022-11-20T21:34:02;97829.16;;;-3.56;100.00
73171;BME280;61381;50.118;19.962;2022-11-20T21:39:04;97829.09;;;-3.49;100.00
73171;BME280;61381;50.118;19.962;2022-11-20T21:44:06;97825.44;;;-3.42;100.00
73171;BME280;61381;50.118;19.962;2022-11-20T21:49:07;97807.84;;;-3.28;100.00
73171;BME280;61381;50.118;19.962;2022-11-20T21:54:10;97803.41;;;-3.27;100.00
73171;BME280;61381;50.118;19.962;2022-11-20T21:59:11;97812.03;;;-3.20;100.00
73171;BME280;61381;50.118;19.962;2022-11-20T22:04:13;97809.13;;;-3.12;100.00
73171;BME280;61381;50.118;19.962;2022-11-20T22:09:15;97819.63;;;-3.12;100.00
73171;BME280;61381;50.118;19.962;2022-11-20T22:14:16;97815.59;;;-3.14;100.00
73171;BME280;61381;50.118;19.962;2022-11-20T22:19:17;97817.28;;;-3.20;100.00
73171;BME280;61381;50.118;19.962;2022-11-20T22:24:21;97822.72;;;-2.96;100.00
73171;BME280;61381;50.118;19.962;2022-11-20T22:29:22;97819.31;;;-2.97;100.00
73171;BME280;61381;50.118;19.962;2022-11-20T22:34:23;97824.84;;;-2.87;100.00
73171;BME280;61381;50.118;19.962;2022-11-20T22:39:25;97837.31;;;-2.82;100.00
73171;BME280;61381;50.118;19.962;2022-11-20T22:44:26;97833.97;;;-2.89;100.00
73171;BME280;61381;50.118;19.962;2022-11-20T22:49:27;97819.41;;;-2.85;100.00
73171;BME280;61381;50.118;19.962;2022-11-20T22:54:29;97837.94;;;-2.80;100.00
73171;BME280;61381;50.118;19.962;2022-11-20T22:59:30;97857.50;;;-2.57;100.00
73171;BME280;61381;50.118;19.962;2022-11-20T23:04:31;97840.38;;;-2.60;100.00
73171;BME280;61381;50.118;19.962;2022-11-20T23:09:33;97840.44;;;-2.92;100.00
73171;BME280;61381;50.118;19.962;2022-11-20T23:14:34;97829.63;;;-3.02;100.00
73171;BME280;61381;50.118;19.962;2022-11-20T23:19:35;97838.34;;;-2.83;100.00
73171;BME280;61381;50.118;19.962;2022-11-20T23:24:38;97836.69;;;-2.77;100.00
73171;BME280;61381;50.118;19.962;2022-11-20T23:29:39;97830.09;;;-2.61;100.00
73171;BME280;61381;50.118;19.962;2022-11-20T23:34:39;97819.22;;;-2.65;100.00
73171;BME280;61381;50.118;19.962;2022-11-20T23:39:42;97809.88;;;-2.79;100.00
73171;BME280;61381;50.118;19.962;2022-11-20T23:44:43;97805.00;;;-2.76;100.00
73171;BME280;61381;50.118;19.962;2022-11-20T23:49:43;97786.31;;;-2.79;100.00
73171;BME280;61381;50.118;19.962;2022-11-20T23:54:46;97789.50;;;-2.77;100.00
73171;BME280;61381;50.118;19.962;2022-11-20T23:59:47;97800.47;;;-2.87;100.00
